Time,TemperatureF,DewpointF,PressureIn,WindDirection,WindDirectionDegrees,WindSpeedMPH,WindSpeedGustMPH,Humidity,HourlyPrecipIn,Conditions,Clouds,dailyrainin,SoftwareType,DateUTC
2013-08-17 00:00:00,67.1,63.4,30.05,ENE,68,0.0,0.0,88,0.00,,---,0.00,VWS V14.00,2013-08-17 05:00:00,
2013-08-17 00:05:00,67.0,63.3,30.05,ENE,68,0.0,0.0,88,0.00,,---,0.00,VWS V14.00,2013-08-17 05:05:00,
2013-08-17 00:10:00,66.9,63.2,30.05,ENE,68,0.0,0.0,88,0.00,,---,0.00,VWS V14.00,2013-08-17 05:10:00,
2013-08-17 00:15:00,66.9,63.2,30.05,ENE,68,0.0,0.0,88,0.00,,---,0.00,VWS V14.00,2013-08-17 05:15:00,
2013-08-17 00:20:00,66.8,63.5,30.05,ENE,68,0.0,0.0,89,0.00,,---,0.00,VWS V14.00,2013-08-17 05:20:00,
2013-08-17 00:25:00,66.7,63.4,30.04,ENE,68,0.0,0.0,89,0.00,,---,0.00,VWS V14.00,2013-08-17 05:25:00,
2013-08-17 00:30:00,66.7,63.4,30.05,ENE,68,0.0,0.0,89,0.00,,---,0.00,VWS V14.00,2013-08-17 05:30:00,
2013-08-17 00:35:00,66.5,63.2,30.05,ENE,68,0.0,0.0,89,0.00,,---,0.00,VWS V14.00,2013-08-17 05:35:00,
2013-08-17 00:40:00,66.4,63.1,30.05,ENE,68,0.0,0.0,89,0.00,,---,0.00,VWS V14.00,2013-08-17 05:40:00,
2013-08-17 00:45:00,66.2,62.9,30.05,ENE,68,0.0,0.0,89,0.00,,---,0.00,VWS V14.00,2013-08-17 05:45:00,
2013-08-17 00:50:00,66.2,63.2,30.05,ENE,68,0.0,0.0,90,0.00,,---,0.00,VWS V14.00,2013-08-17 05:50:00,
2013-08-17 00:55:00,66.1,63.1,30.05,ENE,68,0.0,0.0,90,0.00,,---,0.00,VWS V14.00,2013-08-17 05:55:00,
2013-08-17 01:00:00,66.0,63.0,30.05,ENE,68,0.0,0.0,90,0.00,,---,0.00,VWS V14.00,2013-08-17 06:00:00,
2013-08-17 01:05:00,66.0,63.0,30.05,ENE,68,0.0,0.0,90,0.00,,---,0.00,VWS V14.00,2013-08-17 06:05:00,
2013-08-17 01:10:00,66.0,63.0,30.06,ENE,68,0.0,0.0,90,0.00,,---,0.00,VWS V14.00,2013-08-17 06:10:00,
2013-08-17 01:15:00,66.0,63.0,30.05,ENE,68,0.0,0.0,90,0.00,,---,0.00,VWS V14.00,2013-08-17 06:15:00,
2013-08-17 01:20:00,66.0,63.0,30.05,ENE,68,0.0,0.0,90,0.00,,---,0.00,VWS V14.00,2013-08-17 06:20:00,
2013-08-17 01:25:00,66.0,63.0,30.06,ENE,68,0.0,0.0,90,0.00,,---,0.00,VWS V14.00,2013-08-17 06:25:00,
2013-08-17 01:30:00,66.0,63.0,30.06,ENE,68,0.0,0.0,90,0.00,,---,0.00,VWS V14.00,2013-08-17 06:30:00,
2013-08-17 01:35:00,66.0,63.0,30.06,ENE,68,0.0,0.0,90,0.00,,---,0.00,VWS V14.00,2013-08-17 06:35:00,
2013-08-17 01:40:00,65.9,62.9,30.06,ENE,68,0.0,0.0,90,0.00,,---,0.00,VWS V14.00,2013-08-17 06:40:00,
2013-08-17 01:45:00,65.9,62.9,30.06,ENE,68,0.0,0.0,90,0.00,,---,0.00,VWS V14.00,2013-08-17 06:45:00,
2013-08-17 01:50:00,65.8,62.8,30.06,ENE,68,0.0,0.0,90,0.00,,---,0.00,VWS V14.00,2013-08-17 06:50:00,
2013-08-17 01:55:00,65.7,62.7,30.06,ENE,68,0.0,0.0,90,0.00,,---,0.00,VWS V14.00,2013-08-17 06:55:00,
2013-08-17 02:00:00,65.6,62.6,30.06,ENE,68,0.0,0.0,90,0.00,,---,0.00,VWS V14.00,2013-08-17 07:00:00,
2013-08-17 02:05:00,65.5,62.8,30.06,ENE,68,0.0,0.0,91,0.00,,---,0.00,VWS V14.00,2013-08-17 07:05:00,
2013-08-17 02:10:00,65.4,62.7,30.06,ENE,68,0.0,0.0,91,0.00,,---,0.00,VWS V14.00,2013-08-17 07:10:00,
2013-08-17 02:15:00,65.3,62.6,30.06,ENE,68,0.0,0.0,91,0.00,,---,0.00,VWS V14.00,2013-08-17 07:15:00,
2013-08-17 02:20:00,65.2,62.5,30.06,ENE,68,0.0,0.0,91,0.00,,---,0.00,VWS V14.00,2013-08-17 07:20:00,
2013-08-17 02:25:00,65.1,62.4,30.06,ENE,68,0.0,0.0,91,0.00,,---,0.00,VWS V14.00,2013-08-17 07:25:00,
2013-08-17 02:30:00,65.1,62.4,30.06,ENE,68,0.0,0.0,91,0.00,,---,0.00,VWS V14.00,2013-08-17 07:30:00,
2013-08-17 02:35:00,65.0,62.3,30.06,ENE,68,0.0,0.0,91,0.00,,---,0.00,VWS V14.00,2013-08-17 07:35:00,
2013-08-17 02:40:00,64.8,62.1,30.06,ENE,68,0.0,0.0,91,0.00,,---,0.00,VWS V14.00,2013-08-17 07:40:00,
2013-08-17 02:45:00,64.7,62.0,30.06,ENE,68,0.0,0.0,91,0.00,,---,0.00,VWS V14.00,2013-08-17 07:45:00,
2013-08-17 02:50:00,64.6,62.2,30.06,ENE,68,0.0,0.0,92,0.00,,---,0.00,VWS V14.00,2013-08-17 07:50:00,
2013-08-17 02:55:00,64.6,62.2,30.06,ENE,68,0.0,0.0,92,0.00,,---,0.00,VWS V14.00,2013-08-17 07:55:00,
2013-08-17 03:00:00,64.6,62.2,30.06,ENE,68,0.0,0.0,92,0.00,,---,0.00,VWS V14.00,2013-08-17 08:00:00,
2013-08-17 03:05:00,64.5,62.1,30.06,ENE,68,1.0,2.0,92,0.00,,---,0.00,VWS V14.00,2013-08-17 08:05:00,
2013-08-17 03:10:00,64.3,61.9,30.06,ENE,68,0.0,2.0,92,0.00,,---,0.00,VWS V14.00,2013-08-17 08:10:00,
2013-08-17 03:15:00,64.2,61.8,30.06,ENE,68,0.0,0.0,92,0.00,,---,0.00,VWS V14.00,2013-08-17 08:15:00,
2013-08-17 03:20:00,64.1,61.7,30.06,ENE,68,0.0,0.0,92,0.00,,---,0.00,VWS V14.00,2013-08-17 08:20:00,
2013-08-17 03:25:00,64.1,61.7,30.05,ENE,68,0.0,0.0,92,0.00,,---,0.00,VWS V14.00,2013-08-17 08:25:00,
2013-08-17 03:30:00,64.0,61.6,30.06,ENE,68,0.0,0.0,92,0.00,,---,0.00,VWS V14.00,2013-08-17 08:30:00,
2013-08-17 03:35:00,63.9,61.5,30.05,ENE,68,0.0,0.0,92,0.00,,---,0.00,VWS V14.00,2013-08-17 08:35:00,
2013-08-17 03:40:00,63.9,61.8,30.06,ENE,68,0.0,0.0,93,0.00,,---,0.00,VWS V14.00,2013-08-17 08:40:00,
2013-08-17 03:45:00,63.8,61.7,30.06,ENE,68,0.0,0.0,93,0.00,,---,0.00,VWS V14.00,2013-08-17 08:45:00,
2013-08-17 03:50:00,63.8,61.4,30.06,ENE,68,0.0,0.0,92,0.00,,---,0.00,VWS V14.00,2013-08-17 08:50:00,
2013-08-17 03:55:00,63.7,61.6,30.06,ENE,68,0.0,0.0,93,0.00,,---,0.00,VWS V14.00,2013-08-17 08:55:00,
2013-08-17 04:00:00,63.6,61.5,30.06,ENE,68,0.0,0.0,93,0.00,,---,0.00,VWS V14.00,2013-08-17 09:00:00,
2013-08-17 04:05:00,63.5,61.4,30.06,ENE,68,2.0,3.0,93,0.00,,---,0.00,VWS V14.00,2013-08-17 09:05:00,
2013-08-17 04:10:00,63.5,61.4,30.06,ENE,68,1.0,3.0,93,0.00,,---,0.00,VWS V14.00,2013-08-17 09:10:00,
2013-08-17 04:15:00,63.4,61.3,30.06,ENE,68,0.0,0.0,93,0.00,,---,0.00,VWS V14.00,2013-08-17 09:15:00,
2013-08-17 04:20:00,63.4,61.3,30.06,ENE,68,0.0,0.0,93,0.00,,---,0.00,VWS V14.00,2013-08-17 09:20:00,
2013-08-17 04:25:00,63.3,61.2,30.06,ENE,68,0.0,0.0,93,0.00,,---,0.00,VWS V14.00,2013-08-17 09:25:00,
2013-08-17 04:30:00,63.2,61.2,30.05,ENE,68,0.0,0.0,93,0.00,,---,0.00,VWS V14.00,2013-08-17 09:30:00,
2013-08-17 04:35:00,63.1,61.0,30.05,ENE,68,0.0,0.0,93,0.00,,---,0.00,VWS V14.00,2013-08-17 09:35:00,
2013-08-17 04:40:00,63.0,61.0,30.05,ENE,68,0.0,0.0,93,0.00,,---,0.00,VWS V14.00,2013-08-17 09:40:00,
2013-08-17 04:45:00,63.0,61.0,30.05,ENE,68,0.0,0.0,93,0.00,,---,0.00,VWS V14.00,2013-08-17 09:45:00,
2013-08-17 04:50:00,62.9,60.8,30.05,ENE,68,0.0,0.0,93,0.00,,---,0.00,VWS V14.00,2013-08-17 09:50:00,
2013-08-17 04:55:00,62.9,60.8,30.05,ENE,68,0.0,0.0,93,0.00,,---,0.00,VWS V14.00,2013-08-17 09:55:00,
2013-08-17 05:00:00,62.9,60.8,30.06,ENE,68,0.0,0.0,93,0.00,,---,0.00,VWS V14.00,2013-08-17 10:00:00,
2013-08-17 05:05:00,63.0,61.0,30.05,ENE,68,0.0,0.0,93,0.00,,---,0.00,VWS V14.00,2013-08-17 10:05:00,
2013-08-17 05:10:00,63.0,61.0,30.06,ENE,68,0.0,0.0,93,0.00,,---,0.00,VWS V14.00,2013-08-17 10:10:00,
2013-08-17 05:15:00,63.0,61.0,30.06,ENE,68,0.0,0.0,93,0.00,,---,0.00,VWS V14.00,2013-08-17 10:15:00,
2013-08-17 05:20:00,63.0,61.0,30.06,ENE,68,0.0,0.0,93,0.00,,---,0.00,VWS V14.00,2013-08-17 10:20:00,
2013-08-17 05:25:00,63.0,61.0,30.06,ENE,68,0.0,0.0,93,0.00,,---,0.00,VWS V14.00,2013-08-17 10:25:00,
2013-08-17 05:30:00,62.9,60.8,30.06,ENE,68,0.0,0.0,93,0.00,,---,0.00,VWS V14.00,2013-08-17 10:30:00,
2013-08-17 05:35:00,62.9,60.8,30.06,ENE,68,0.0,0.0,93,0.00,,---,0.00,VWS V14.00,2013-08-17 10:35:00,
2013-08-17 05:40:00,62.8,60.8,30.06,ENE,68,0.0,0.0,93,0.00,,---,0.00,VWS V14.00,2013-08-17 10:40:00,
2013-08-17 05:45:00,62.8,61.0,30.06,ENE,68,0.0,0.0,94,0.00,,---,0.00,VWS V14.00,2013-08-17 10:45:00,
2013-08-17 05:50:00,62.7,61.0,30.06,ENE,68,0.0,0.0,94,0.00,,---,0.00,VWS V14.00,2013-08-17 10:50:00,
2013-08-17 05:55:00,62.7,61.0,30.06,ENE,68,0.0,0.0,94,0.00,,---,0.00,VWS V14.00,2013-08-17 10:55:00,
2013-08-17 06:00:00,62.7,61.0,30.06,ENE,68,0.0,0.0,94,0.00,,---,0.00,VWS V14.00,2013-08-17 11:00:00,
2013-08-17 06:05:00,62.7,61.0,30.06,ENE,68,0.0,0.0,94,0.00,,---,0.00,VWS V14.00,2013-08-17 11:05:00,
2013-08-17 06:10:00,62.6,60.8,30.06,ENE,68,0.0,0.0,94,0.00,,---,0.00,VWS V14.00,2013-08-17 11:10:00,
2013-08-17 06:15:00,62.6,60.8,30.06,ENE,68,0.0,0.0,94,0.00,,---,0.00,VWS V14.00,2013-08-17 11:15:00,
2013-08-17 06:20:00,62.5,60.8,30.06,ENE,68,0.0,0.0,94,0.00,,---,0.00,VWS V14.00,2013-08-17 11:20:00,
2013-08-17 06:25:00,62.5,60.8,30.06,ENE,68,0.0,0.0,94,0.00,,---,0.00,VWS V14.00,2013-08-17 11:25:00,
2013-08-17 06:30:00,62.5,60.8,30.06,ENE,68,0.0,0.0,94,0.00,,---,0.00,VWS V14.00,2013-08-17 11:30:00,
2013-08-17 06:35:00,62.5,60.8,30.07,ENE,68,0.0,0.0,94,0.00,,---,0.00,VWS V14.00,2013-08-17 11:35:00,
2013-08-17 06:40:00,62.4,60.7,30.07,ENE,68,0.0,0.0,94,0.00,,---,0.00,VWS V14.00,2013-08-17 11:40:00,
2013-08-17 06:45:00,62.4,60.7,30.07,ENE,68,0.0,0.0,94,0.00,,---,0.00,VWS V14.00,2013-08-17 11:45:00,
2013-08-17 06:50:00,62.3,60.6,30.07,ENE,68,0.0,0.0,94,0.00,,---,0.00,VWS V14.00,2013-08-17 11:50:00,
2013-08-17 06:55:00,62.3,60.6,30.07,ENE,68,0.0,0.0,94,0.00,,---,0.00,VWS V14.00,2013-08-17 11:55:00,
2013-08-17 07:00:00,62.3,60.6,30.07,ENE,68,0.0,0.0,94,0.00,,---,0.00,VWS V14.00,2013-08-17 12:00:00,
2013-08-17 07:05:00,62.3,60.6,30.07,ENE,68,0.0,0.0,94,0.00,,---,0.00,VWS V14.00,2013-08-17 12:05:00,
2013-08-17 07:10:00,62.4,60.7,30.07,ENE,68,0.0,0.0,94,0.00,,---,0.00,VWS V14.00,2013-08-17 12:10:00,
2013-08-17 07:15:00,62.4,60.7,30.07,ENE,68,0.0,0.0,94,0.00,,---,0.00,VWS V14.00,2013-08-17 12:15:00,
2013-08-17 07:20:00,62.5,60.8,30.07,ENE,68,1.0,4.0,94,0.00,,---,0.00,VWS V14.00,2013-08-17 12:20:00,
2013-08-17 07:25:00,62.6,60.8,30.07,ENE,68,2.0,4.0,94,0.00,,---,0.00,VWS V14.00,2013-08-17 12:25:00,
2013-08-17 07:30:00,62.7,61.0,30.07,ENE,68,2.0,4.0,94,0.00,,---,0.00,VWS V14.00,2013-08-17 12:30:00,
2013-08-17 07:35:00,62.8,61.0,30.07,ENE,68,1.0,4.0,94,0.00,,---,0.00,VWS V14.00,2013-08-17 12:35:00,
2013-08-17 07:40:00,63.0,61.2,30.07,ENE,68,2.0,4.0,94,0.00,,---,0.00,VWS V14.00,2013-08-17 12:40:00,
2013-08-17 07:45:00,63.2,61.5,30.07,ENE,68,3.0,4.0,94,0.00,,---,0.00,VWS V14.00,2013-08-17 12:45:00,
2013-08-17 07:50:00,63.4,62.0,30.08,ENE,68,3.0,5.0,95,0.00,,---,0.00,VWS V14.00,2013-08-17 12:50:00,
2013-08-17 07:55:00,63.6,61.8,30.08,ENE,68,4.0,7.0,94,0.00,,---,0.00,VWS V14.00,2013-08-17 12:55:00,
2013-08-17 08:00:00,63.7,62.0,30.08,ENE,68,4.0,7.0,94,0.00,,---,0.00,VWS V14.00,2013-08-17 13:00:00,
2013-08-17 08:05:00,63.8,62.0,30.07,ENE,68,4.0,5.0,94,0.00,,---,0.00,VWS V14.00,2013-08-17 13:05:00,
2013-08-17 08:10:00,64.1,62.6,30.08,ENE,68,4.0,6.0,95,0.00,,---,0.00,VWS V14.00,2013-08-17 13:10:00,
2013-08-17 08:15:00,64.3,62.5,30.07,ENE,68,4.0,6.0,94,0.00,,---,0.00,VWS V14.00,2013-08-17 13:15:00,
2013-08-17 08:20:00,64.5,62.7,30.08,ENE,68,4.0,5.0,94,0.00,,---,0.00,VWS V14.00,2013-08-17 13:20:00,
2013-08-17 08:25:00,64.7,62.9,30.08,ENE,68,4.0,6.0,94,0.00,,---,0.00,VWS V14.00,2013-08-17 13:25:00,
2013-08-17 08:30:00,64.8,63.0,30.08,ENE,68,4.0,6.0,94,0.00,,---,0.00,VWS V14.00,2013-08-17 13:30:00,
2013-08-17 08:35:00,65.1,63.3,30.08,ENE,68,4.0,6.0,94,0.00,,---,0.00,VWS V14.00,2013-08-17 13:35:00,
2013-08-17 08:40:00,65.2,63.4,30.08,ENE,68,5.0,7.0,94,0.00,,---,0.00,VWS V14.00,2013-08-17 13:40:00,
2013-08-17 08:45:00,65.4,63.6,30.08,ENE,68,5.0,7.0,94,0.00,,---,0.00,VWS V14.00,2013-08-17 13:45:00,
2013-08-17 08:50:00,65.7,63.9,30.08,ENE,68,4.0,6.0,94,0.00,,---,0.00,VWS V14.00,2013-08-17 13:50:00,
2013-08-17 08:55:00,66.0,64.2,30.08,ENE,68,4.0,6.0,94,0.00,,---,0.00,VWS V14.00,2013-08-17 13:55:00,
2013-08-17 09:00:00,66.3,64.2,30.08,ENE,68,4.0,6.0,93,0.00,,---,0.00,VWS V14.00,2013-08-17 14:00:00,
2013-08-17 09:05:00,66.7,64.6,30.08,ENE,68,4.0,5.0,93,0.00,,---,0.00,VWS V14.00,2013-08-17 14:05:00,
2013-08-17 09:10:00,67.1,65.0,30.08,ENE,68,3.0,7.0,93,0.00,,---,0.00,VWS V14.00,2013-08-17 14:10:00,
2013-08-17 09:15:00,67.6,65.2,30.08,ENE,68,4.0,7.0,92,0.00,,---,0.00,VWS V14.00,2013-08-17 14:15:00,
2013-08-17 09:20:00,67.9,65.5,30.08,ENE,68,3.0,6.0,92,0.00,,---,0.00,VWS V14.00,2013-08-17 14:20:00,
2013-08-17 09:25:00,68.2,65.5,30.08,ENE,68,3.0,5.0,91,0.00,,---,0.00,VWS V14.00,2013-08-17 14:25:00,
2013-08-17 09:30:00,68.6,65.9,30.08,ENE,68,3.0,5.0,91,0.00,,---,0.00,VWS V14.00,2013-08-17 14:30:00,
2013-08-17 09:35:00,68.9,65.8,30.08,ENE,68,3.0,5.0,90,0.00,,---,0.00,VWS V14.00,2013-08-17 14:35:00,
2013-08-17 09:40:00,69.3,65.9,30.08,ENE,68,3.0,6.0,89,0.00,,---,0.00,VWS V14.00,2013-08-17 14:40:00,
2013-08-17 09:45:00,69.6,65.9,30.08,ENE,68,2.0,5.0,88,0.00,,---,0.00,VWS V14.00,2013-08-17 14:45:00,
2013-08-17 09:50:00,70.0,66.0,30.08,ENE,68,3.0,6.0,87,0.00,,---,0.00,VWS V14.00,2013-08-17 14:50:00,
2013-08-17 09:55:00,70.4,66.0,30.08,ENE,68,3.0,5.0,86,0.00,,---,0.00,VWS V14.00,2013-08-17 14:55:00,
2013-08-17 10:00:00,70.8,65.7,30.08,ENE,68,3.0,6.0,84,0.00,,---,0.00,VWS V14.00,2013-08-17 15:00:00,
2013-08-17 10:05:00,71.2,65.8,30.08,ENE,68,3.0,6.0,83,0.00,,---,0.00,VWS V14.00,2013-08-17 15:05:00,
2013-08-17 10:10:00,71.5,65.4,30.08,ENE,68,3.0,6.0,81,0.00,,---,0.00,VWS V14.00,2013-08-17 15:10:00,
2013-08-17 10:15:00,71.8,64.9,30.08,ENE,68,3.0,6.0,79,0.00,,---,0.00,VWS V14.00,2013-08-17 15:15:00,
2013-08-17 10:20:00,72.2,65.3,30.08,ENE,68,3.0,5.0,79,0.00,,---,0.00,VWS V14.00,2013-08-17 15:20:00,
2013-08-17 10:25:00,72.6,65.3,30.09,ENE,68,3.0,6.0,78,0.00,,---,0.00,VWS V14.00,2013-08-17 15:25:00,
2013-08-17 10:30:00,73.0,65.4,30.09,ENE,68,3.0,6.0,77,0.00,,---,0.00,VWS V14.00,2013-08-17 15:30:00,
2013-08-17 10:35:00,73.3,65.7,30.09,ENE,68,2.0,5.0,77,0.00,,---,0.00,VWS V14.00,2013-08-17 15:35:00,
2013-08-17 10:40:00,73.7,65.7,30.09,ENE,68,3.0,6.0,76,0.00,,---,0.00,VWS V14.00,2013-08-17 15:40:00,
2013-08-17 10:45:00,74.0,65.6,30.09,ENE,68,3.0,6.0,75,0.00,,---,0.00,VWS V14.00,2013-08-17 15:45:00,
2013-08-17 10:50:00,74.1,64.9,30.08,ENE,68,4.0,6.0,73,0.00,,---,0.00,VWS V14.00,2013-08-17 15:50:00,
2013-08-17 10:55:00,74.4,64.4,30.09,ENE,68,3.0,6.0,71,0.00,,---,0.00,VWS V14.00,2013-08-17 15:55:00,
2013-08-17 11:00:00,74.5,64.5,30.09,ENE,68,4.0,9.0,71,0.00,,---,0.00,VWS V14.00,2013-08-17 16:00:00,
2013-08-17 11:05:00,74.7,64.7,30.09,ENE,68,3.0,6.0,71,0.00,,---,0.00,VWS V14.00,2013-08-17 16:05:00,
2013-08-17 11:10:00,75.0,65.0,30.09,ENE,68,5.0,10.0,71,0.00,,---,0.00,VWS V14.00,2013-08-17 16:10:00,
2013-08-17 11:15:00,75.2,65.2,30.09,ENE,68,2.0,9.0,71,0.00,,---,0.00,VWS V14.00,2013-08-17 16:15:00,
2013-08-17 11:20:00,75.5,65.4,30.09,ENE,68,2.0,7.0,71,0.00,,---,0.00,VWS V14.00,2013-08-17 16:20:00,
2013-08-17 11:25:00,75.7,65.2,30.09,ENE,68,1.0,3.0,70,0.00,,---,0.00,VWS V14.00,2013-08-17 16:25:00,
2013-08-17 11:30:00,75.8,64.5,30.09,ENE,68,4.0,7.0,68,0.00,,---,0.00,VWS V14.00,2013-08-17 16:30:00,
2013-08-17 11:35:00,75.9,65.0,30.09,ENE,68,2.0,6.0,69,0.00,,---,0.00,VWS V14.00,2013-08-17 16:35:00,
2013-08-17 11:40:00,75.9,65.0,30.09,ENE,68,3.0,9.0,69,0.00,,---,0.00,VWS V14.00,2013-08-17 16:40:00,
2013-08-17 11:45:00,75.9,65.4,30.09,ENE,68,4.0,8.0,70,0.00,,---,0.00,VWS V14.00,2013-08-17 16:45:00,
2013-08-17 11:50:00,75.7,64.4,30.09,ENE,68,5.0,9.0,68,0.00,,---,0.00,VWS V14.00,2013-08-17 16:50:00,
2013-08-17 11:55:00,75.2,65.2,30.09,ENE,68,4.0,7.0,71,0.00,,---,0.00,VWS V14.00,2013-08-17 16:55:00,
2013-08-17 12:00:00,75.1,64.7,30.08,ENE,68,3.0,10.0,70,0.00,,---,0.00,VWS V14.00,2013-08-17 17:00:00,
2013-08-17 12:05:00,75.0,65.0,30.08,NE,45,4.0,9.0,71,0.00,,---,0.00,VWS V14.00,2013-08-17 17:05:00,
2013-08-17 12:10:00,75.4,64.9,30.08,NE,45,4.0,9.0,70,0.00,,---,0.00,VWS V14.00,2013-08-17 17:10:00,
2013-08-17 12:15:00,76.0,64.7,30.08,NE,45,6.0,10.0,68,0.00,,---,0.00,VWS V14.00,2013-08-17 17:15:00,
2013-08-17 12:20:00,76.4,64.2,30.08,NNE,22,4.0,7.0,66,0.00,,---,0.00,VWS V14.00,2013-08-17 17:20:00,
2013-08-17 12:25:00,76.6,65.3,30.08,NNE,22,4.0,7.0,68,0.00,,---,0.00,VWS V14.00,2013-08-17 17:25:00,
2013-08-17 12:30:00,76.8,65.0,30.07,NNE,22,6.0,10.0,67,0.00,,---,0.00,VWS V14.00,2013-08-17 17:30:00,
2013-08-17 12:35:00,76.9,64.2,30.07,NNE,22,6.0,11.0,65,0.00,,---,0.00,VWS V14.00,2013-08-17 17:35:00,
2013-08-17 12:40:00,76.8,64.2,30.07,NNE,22,5.0,10.0,65,0.00,,---,0.00,VWS V14.00,2013-08-17 17:40:00,
2013-08-17 12:45:00,77.0,64.3,30.07,NNE,22,6.0,10.0,65,0.00,,---,0.00,VWS V14.00,2013-08-17 17:45:00,
2013-08-17 12:50:00,77.3,64.2,30.07,NNE,22,6.0,13.0,64,0.00,,---,0.00,VWS V14.00,2013-08-17 17:50:00,
2013-08-17 12:55:00,77.3,65.9,30.06,NE,45,6.0,13.0,68,0.00,,---,0.00,VWS V14.00,2013-08-17 17:55:00,
2013-08-17 13:00:00,77.6,64.9,30.06,NE,45,4.0,9.0,65,0.00,,---,0.00,VWS V14.00,2013-08-17 18:00:00,
2013-08-17 13:05:00,77.7,65.4,30.06,NE,45,6.0,11.0,66,0.00,,---,0.00,VWS V14.00,2013-08-17 18:05:00,
2013-08-17 13:10:00,78.0,64.4,30.06,NNE,22,5.0,11.0,63,0.00,,---,0.00,VWS V14.00,2013-08-17 18:10:00,
2013-08-17 13:15:00,77.7,63.2,30.06,NNE,22,5.0,10.0,61,0.00,,---,0.00,VWS V14.00,2013-08-17 18:15:00,
2013-08-17 13:20:00,77.5,63.9,30.06,NNE,22,6.0,11.0,63,0.00,,---,0.00,VWS V14.00,2013-08-17 18:20:00,
2013-08-17 13:25:00,77.7,63.7,30.06,NNE,22,6.0,9.0,62,0.00,,---,0.00,VWS V14.00,2013-08-17 18:25:00,
2013-08-17 13:30:00,77.6,63.6,30.06,NNE,22,5.0,10.0,62,0.00,,---,0.00,VWS V14.00,2013-08-17 18:30:00,
2013-08-17 13:35:00,77.5,63.9,30.05,NNE,22,4.0,9.0,63,0.00,,---,0.00,VWS V14.00,2013-08-17 18:35:00,
2013-08-17 13:40:00,77.3,62.8,30.05,NNE,22,5.0,12.0,61,0.00,,---,0.00,VWS V14.00,2013-08-17 18:40:00,
2013-08-17 13:45:00,77.5,63.9,30.05,NE,45,6.0,13.0,63,0.00,,---,0.00,VWS V14.00,2013-08-17 18:45:00,
2013-08-17 13:50:00,78.1,63.1,30.05,NE,45,4.0,7.0,60,0.00,,---,0.00,VWS V14.00,2013-08-17 18:50:00,
2013-08-17 13:55:00,78.4,64.8,30.05,NE,45,6.0,12.0,63,0.00,,---,0.00,VWS V14.00,2013-08-17 18:55:00,
2013-08-17 14:00:00,78.7,64.1,30.05,NE,45,5.0,9.0,61,0.00,,---,0.00,VWS V14.00,2013-08-17 19:00:00,
2013-08-17 14:05:00,78.8,63.8,30.04,NE,45,5.0,11.0,60,0.00,,---,0.00,VWS V14.00,2013-08-17 19:05:00,
2013-08-17 14:10:00,78.7,63.7,30.04,NE,45,6.0,10.0,60,0.00,,---,0.00,VWS V14.00,2013-08-17 19:10:00,
2013-08-17 14:15:00,78.8,63.8,30.04,NE,45,6.0,11.0,60,0.00,,---,0.00,VWS V14.00,2013-08-17 19:15:00,
2013-08-17 14:20:00,78.9,62.9,30.04,NE,45,6.0,11.0,58,0.00,,---,0.00,VWS V14.00,2013-08-17 19:20:00,
2013-08-17 14:25:00,78.7,62.7,30.04,NE,45,7.0,12.0,58,0.00,,---,0.00,VWS V14.00,2013-08-17 19:25:00,
2013-08-17 14:30:00,78.7,62.7,30.04,NE,45,4.0,9.0,58,0.00,,---,0.00,VWS V14.00,2013-08-17 19:30:00,
2013-08-17 14:35:00,78.7,62.2,30.04,NE,45,6.0,11.0,57,0.00,,---,0.00,VWS V14.00,2013-08-17 19:35:00,
2013-08-17 14:40:00,78.7,63.2,30.04,NE,45,6.0,12.0,59,0.00,,---,0.00,VWS V14.00,2013-08-17 19:40:00,
2013-08-17 14:45:00,78.8,62.3,30.04,NE,45,8.0,14.0,57,0.00,,---,0.00,VWS V14.00,2013-08-17 19:45:00,
2013-08-17 14:50:00,78.9,63.4,30.04,NE,45,5.0,10.0,59,0.00,,---,0.00,VWS V14.00,2013-08-17 19:50:00,
2013-08-17 14:55:00,79.2,63.2,30.04,NE,45,5.0,11.0,58,0.00,,---,0.00,VWS V14.00,2013-08-17 19:55:00,
2013-08-17 15:00:00,79.4,62.9,30.03,NE,45,6.0,12.0,57,0.00,,---,0.00,VWS V14.00,2013-08-17 20:00:00,
2013-08-17 15:05:00,79.3,64.2,30.03,ENE,68,8.0,12.0,60,0.00,,---,0.00,VWS V14.00,2013-08-17 20:05:00,
2013-08-17 15:10:00,79.1,64.0,30.03,ENE,68,6.0,11.0,60,0.00,,---,0.00,VWS V14.00,2013-08-17 20:10:00,
2013-08-17 15:15:00,78.9,62.9,30.03,NE,45,8.0,12.0,58,0.00,,---,0.00,VWS V14.00,2013-08-17 20:15:00,
2013-08-17 15:20:00,78.9,62.9,30.03,NE,45,6.0,11.0,58,0.00,,---,0.00,VWS V14.00,2013-08-17 20:20:00,
2013-08-17 15:25:00,78.7,63.2,30.02,NE,45,5.0,9.0,59,0.00,,---,0.00,VWS V14.00,2013-08-17 20:25:00,
2013-08-17 15:30:00,78.8,62.8,30.02,NE,45,7.0,12.0,58,0.00,,---,0.00,VWS V14.00,2013-08-17 20:30:00,
2013-08-17 15:35:00,78.8,62.3,30.02,NE,45,6.0,13.0,57,0.00,,---,0.00,VWS V14.00,2013-08-17 20:35:00,
2013-08-17 15:40:00,78.9,62.9,30.02,NE,45,6.0,10.0,58,0.00,,---,0.00,VWS V14.00,2013-08-17 20:40:00,
2013-08-17 15:45:00,79.1,63.6,30.01,NE,45,7.0,13.0,59,0.00,,---,0.00,VWS V14.00,2013-08-17 20:45:00,
2013-08-17 15:50:00,79.1,62.6,30.01,NE,45,8.0,12.0,57,0.00,,---,0.00,VWS V14.00,2013-08-17 20:50:00,
2013-08-17 15:55:00,79.1,62.6,30.01,NE,45,7.0,11.0,57,0.00,,---,0.00,VWS V14.00,2013-08-17 20:55:00,
2013-08-17 16:00:00,79.1,62.6,30.01,NE,45,5.0,10.0,57,0.00,,---,0.00,VWS V14.00,2013-08-17 21:00:00,
2013-08-17 16:05:00,79.0,62.5,30.01,NE,45,8.0,14.0,57,0.00,,---,0.00,VWS V14.00,2013-08-17 21:05:00,
2013-08-17 16:10:00,78.9,63.4,30.00,NE,45,6.0,12.0,59,0.00,,---,0.00,VWS V14.00,2013-08-17 21:10:00,
2013-08-17 16:15:00,79.1,61.0,30.00,NE,45,7.0,11.0,54,0.00,,---,0.00,VWS V14.00,2013-08-17 21:15:00,
2013-08-17 16:20:00,79.0,61.5,30.01,NE,45,9.0,12.0,55,0.00,,---,0.00,VWS V14.00,2013-08-17 21:20:00,
2013-08-17 16:25:00,78.8,60.8,30.01,ENE,68,7.0,13.0,54,0.00,,---,0.00,VWS V14.00,2013-08-17 21:25:00,
2013-08-17 16:30:00,78.7,60.2,30.01,NE,45,7.0,11.0,53,0.00,,---,0.00,VWS V14.00,2013-08-17 21:30:00,
2013-08-17 16:35:00,78.8,60.8,30.01,NE,45,6.0,10.0,54,0.00,,---,0.00,VWS V14.00,2013-08-17 21:35:00,
2013-08-17 16:40:00,78.9,61.9,30.01,NE,45,6.0,10.0,56,0.00,,---,0.00,VWS V14.00,2013-08-17 21:40:00,
2013-08-17 16:45:00,78.9,61.9,30.00,NE,45,5.0,11.0,56,0.00,,---,0.00,VWS V14.00,2013-08-17 21:45:00,
2013-08-17 16:50:00,79.0,62.5,30.00,NE,45,5.0,10.0,57,0.00,,---,0.00,VWS V14.00,2013-08-17 21:50:00,
2013-08-17 16:55:00,79.0,61.5,30.01,NE,45,8.0,13.0,55,0.00,,---,0.00,VWS V14.00,2013-08-17 21:55:00,
2013-08-17 17:00:00,78.8,61.8,30.01,NE,45,8.0,13.0,56,0.00,,---,0.00,VWS V14.00,2013-08-17 22:00:00,
2013-08-17 17:05:00,78.8,62.3,30.01,NE,45,6.0,10.0,57,0.00,,---,0.00,VWS V14.00,2013-08-17 22:05:00,
2013-08-17 17:10:00,78.8,62.3,30.01,NE,45,5.0,9.0,57,0.00,,---,0.00,VWS V14.00,2013-08-17 22:10:00,
2013-08-17 17:15:00,78.8,61.8,30.01,NE,45,7.0,11.0,56,0.00,,---,0.00,VWS V14.00,2013-08-17 22:15:00,
2013-08-17 17:20:00,78.7,62.2,30.01,NE,45,5.0,9.0,57,0.00,,---,0.00,VWS V14.00,2013-08-17 22:20:00,
2013-08-17 17:25:00,78.7,62.2,30.01,NE,45,6.0,10.0,57,0.00,,---,0.00,VWS V14.00,2013-08-17 22:25:00,
2013-08-17 17:30:00,78.7,62.2,30.00,NE,45,4.0,9.0,57,0.00,,---,0.00,VWS V14.00,2013-08-17 22:30:00,
2013-08-17 17:35:00,78.7,62.2,30.00,NE,45,6.0,10.0,57,0.00,,---,0.00,VWS V14.00,2013-08-17 22:35:00,
2013-08-17 17:40:00,78.7,62.7,30.00,NNE,22,5.0,11.0,58,0.00,,---,0.00,VWS V14.00,2013-08-17 22:40:00,
2013-08-17 17:45:00,78.7,62.2,30.00,NNE,22,5.0,11.0,57,0.00,,---,0.00,VWS V14.00,2013-08-17 22:45:00,
2013-08-17 17:50:00,78.7,63.2,30.00,NNE,22,5.0,9.0,59,0.00,,---,0.00,VWS V14.00,2013-08-17 22:50:00,
2013-08-17 17:55:00,78.6,63.6,30.00,NE,45,6.0,9.0,60,0.00,,---,0.00,VWS V14.00,2013-08-17 22:55:00,
2013-08-17 18:00:00,78.5,63.0,30.00,NE,45,6.0,11.0,59,0.00,,---,0.00,VWS V14.00,2013-08-17 23:00:00,
2013-08-17 18:05:00,78.4,62.9,30.00,NE,45,4.0,9.0,59,0.00,,---,0.00,VWS V14.00,2013-08-17 23:05:00,
2013-08-17 18:10:00,78.4,62.9,30.00,NE,45,3.0,6.0,59,0.00,,---,0.00,VWS V14.00,2013-08-17 23:10:00,
2013-08-17 18:15:00,78.3,62.3,30.00,NE,45,4.0,7.0,58,0.00,,---,0.00,VWS V14.00,2013-08-17 23:15:00,
2013-08-17 18:20:00,78.3,62.8,30.00,NE,45,4.0,8.0,59,0.00,,---,0.00,VWS V14.00,2013-08-17 23:20:00,
2013-08-17 18:25:00,78.4,62.9,30.00,NE,45,3.0,5.0,59,0.00,,---,0.00,VWS V14.00,2013-08-17 23:25:00,
2013-08-17 18:30:00,78.3,63.3,30.00,NE,45,4.0,6.0,60,0.00,,---,0.00,VWS V14.00,2013-08-17 23:30:00,
2013-08-17 18:35:00,78.2,62.7,30.00,NE,45,4.0,6.0,59,0.00,,---,0.00,VWS V14.00,2013-08-17 23:35:00,
2013-08-17 18:40:00,78.0,62.5,30.00,NE,45,4.0,6.0,59,0.00,,---,0.00,VWS V14.00,2013-08-17 23:40:00,
2013-08-17 18:45:00,77.9,63.4,29.99,NE,45,1.0,4.0,61,0.00,,---,0.00,VWS V14.00,2013-08-17 23:45:00,
2013-08-17 18:50:00,77.9,62.9,29.99,NE,45,3.0,7.0,60,0.00,,---,0.00,VWS V14.00,2013-08-17 23:50:00,
2013-08-17 18:55:00,77.8,63.3,29.99,NE,45,3.0,5.0,61,0.00,,---,0.00,VWS V14.00,2013-08-17 23:55:00,
2013-08-17 19:00:00,77.8,63.3,29.99,NE,45,0.0,3.0,61,0.00,,---,0.00,VWS V14.00,2013-08-18 00:00:00,
2013-08-17 19:05:00,77.9,63.8,29.99,NE,45,0.0,3.0,62,0.00,,---,0.00,VWS V14.00,2013-08-18 00:05:00,
2013-08-17 19:10:00,77.9,63.8,29.99,NE,45,2.0,4.0,62,0.00,,---,0.00,VWS V14.00,2013-08-18 00:10:00,
2013-08-17 19:15:00,77.7,64.6,30.00,NE,45,1.0,3.0,64,0.00,,---,0.00,VWS V14.00,2013-08-18 00:15:00,
2013-08-17 19:20:00,77.4,64.7,29.99,NE,45,0.0,2.0,65,0.00,,---,0.00,VWS V14.00,2013-08-18 00:20:00,
2013-08-17 19:25:00,77.0,64.3,29.99,NE,45,0.0,2.0,65,0.00,,---,0.00,VWS V14.00,2013-08-18 00:25:00,
2013-08-17 19:30:00,76.8,64.6,30.00,NE,45,0.0,0.0,66,0.00,,---,0.00,VWS V14.00,2013-08-18 00:30:00,
2013-08-17 19:35:00,76.6,64.8,30.00,NE,45,0.0,0.0,67,0.00,,---,0.00,VWS V14.00,2013-08-18 00:35:00,
2013-08-17 19:40:00,76.4,64.6,29.99,NE,45,0.0,0.0,67,0.00,,---,0.00,VWS V14.00,2013-08-18 00:40:00,
2013-08-17 19:45:00,76.3,64.6,30.00,NE,45,0.0,0.0,67,0.00,,---,0.00,VWS V14.00,2013-08-18 00:45:00,
2013-08-17 19:50:00,76.2,66.1,30.00,NE,45,0.0,0.0,71,0.00,,---,0.00,VWS V14.00,2013-08-18 00:50:00,
2013-08-17 19:55:00,76.0,65.5,29.99,NE,45,0.0,0.0,70,0.00,,---,0.00,VWS V14.00,2013-08-18 00:55:00,
2013-08-17 20:00:00,75.8,64.9,30.00,NE,45,0.0,0.0,69,0.00,,---,0.00,VWS V14.00,2013-08-18 01:00:00,
2013-08-17 20:05:00,75.4,64.5,30.00,NE,45,0.0,0.0,69,0.00,,---,0.00,VWS V14.00,2013-08-18 01:05:00,
2013-08-17 20:10:00,75.0,64.2,30.00,NE,45,0.0,0.0,69,0.00,,---,0.00,VWS V14.00,2013-08-18 01:10:00,
2013-08-17 20:15:00,74.6,63.8,30.00,NE,45,0.0,0.0,69,0.00,,---,0.00,VWS V14.00,2013-08-18 01:15:00,
2013-08-17 20:20:00,74.3,63.5,30.00,NE,45,0.0,0.0,69,0.00,,---,0.00,VWS V14.00,2013-08-18 01:20:00,
2013-08-17 20:25:00,74.1,63.7,30.00,NE,45,0.0,0.0,70,0.00,,---,0.00,VWS V14.00,2013-08-18 01:25:00,
2013-08-17 20:30:00,74.0,63.6,30.00,NE,45,0.0,0.0,70,0.00,,---,0.00,VWS V14.00,2013-08-18 01:30:00,
2013-08-17 20:35:00,73.8,63.4,30.00,NE,45,0.0,0.0,70,0.00,,---,0.00,VWS V14.00,2013-08-18 01:35:00,
2013-08-17 20:40:00,73.5,63.5,30.00,NE,45,0.0,0.0,71,0.00,,---,0.00,VWS V14.00,2013-08-18 01:40:00,
2013-08-17 20:45:00,73.0,63.8,30.00,NE,45,0.0,0.0,73,0.00,,---,0.00,VWS V14.00,2013-08-18 01:45:00,
2013-08-17 20:50:00,72.6,64.6,30.00,NE,45,0.0,0.0,76,0.00,,---,0.00,VWS V14.00,2013-08-18 01:50:00,
2013-08-17 20:55:00,72.1,65.2,30.00,NE,45,0.0,0.0,79,0.00,,---,0.00,VWS V14.00,2013-08-18 01:55:00,
2013-08-17 21:00:00,71.7,65.6,30.00,NE,45,0.0,0.0,81,0.00,,---,0.00,VWS V14.00,2013-08-18 02:00:00,
2013-08-17 21:05:00,71.2,65.4,30.00,NE,45,0.0,0.0,82,0.00,,---,0.00,VWS V14.00,2013-08-18 02:05:00,
2013-08-17 21:10:00,70.7,65.3,30.01,NE,45,0.0,0.0,83,0.00,,---,0.00,VWS V14.00,2013-08-18 02:10:00,
2013-08-17 21:15:00,70.2,64.8,30.01,NE,45,0.0,0.0,83,0.00,,---,0.00,VWS V14.00,2013-08-18 02:15:00,
2013-08-17 21:20:00,69.7,64.3,30.01,NE,45,0.0,0.0,83,0.00,,---,0.00,VWS V14.00,2013-08-18 02:20:00,
2013-08-17 21:25:00,69.4,64.4,30.01,NE,45,0.0,0.0,84,0.00,,---,0.00,VWS V14.00,2013-08-18 02:25:00,
2013-08-17 21:30:00,69.2,64.2,30.01,NE,45,0.0,0.0,84,0.00,,---,0.00,VWS V14.00,2013-08-18 02:30:00,
2013-08-17 21:35:00,69.1,64.1,30.01,NE,45,0.0,0.0,84,0.00,,---,0.00,VWS V14.00,2013-08-18 02:35:00,
2013-08-17 21:40:00,69.0,64.0,30.01,NE,45,0.0,0.0,84,0.00,,---,0.00,VWS V14.00,2013-08-18 02:40:00,
2013-08-17 21:45:00,68.9,63.9,30.01,NE,45,0.0,0.0,84,0.00,,---,0.00,VWS V14.00,2013-08-18 02:45:00,
2013-08-17 21:50:00,68.8,63.8,30.02,NE,45,0.0,0.0,84,0.00,,---,0.00,VWS V14.00,2013-08-18 02:50:00,
2013-08-17 21:55:00,68.6,63.6,30.02,NE,45,0.0,0.0,84,0.00,,---,0.00,VWS V14.00,2013-08-18 02:55:00,
2013-08-17 22:00:00,68.4,63.4,30.02,NE,45,0.0,0.0,84,0.00,,---,0.00,VWS V14.00,2013-08-18 03:00:00,
2013-08-17 22:05:00,68.1,63.4,30.02,NE,45,0.0,0.0,85,0.00,,---,0.00,VWS V14.00,2013-08-18 03:05:00,
2013-08-17 22:10:00,67.9,63.6,30.02,NE,45,0.0,0.0,86,0.00,,---,0.00,VWS V14.00,2013-08-18 03:10:00,
2013-08-17 22:15:00,67.8,63.5,30.02,NE,45,0.0,0.0,86,0.00,,---,0.00,VWS V14.00,2013-08-18 03:15:00,
2013-08-17 22:20:00,67.8,63.5,30.02,NE,45,0.0,0.0,86,0.00,,---,0.00,VWS V14.00,2013-08-18 03:20:00,
2013-08-17 22:25:00,67.7,63.7,30.02,NE,45,0.0,0.0,87,0.00,,---,0.00,VWS V14.00,2013-08-18 03:25:00,
2013-08-17 22:30:00,67.6,63.6,30.02,NE,45,0.0,0.0,87,0.00,,---,0.00,VWS V14.00,2013-08-18 03:30:00,
2013-08-17 22:35:00,67.6,63.6,30.03,NE,45,0.0,0.0,87,0.00,,---,0.00,VWS V14.00,2013-08-18 03:35:00,
2013-08-17 22:40:00,67.4,63.4,30.03,NE,45,0.0,0.0,87,0.00,,---,0.00,VWS V14.00,2013-08-18 03:40:00,
2013-08-17 22:45:00,67.3,63.6,30.02,NE,45,0.0,0.0,88,0.00,,---,0.00,VWS V14.00,2013-08-18 03:45:00,
2013-08-17 22:50:00,67.2,63.5,30.02,NE,45,0.0,0.0,88,0.00,,---,0.00,VWS V14.00,2013-08-18 03:50:00,
2013-08-17 22:55:00,67.0,63.3,30.02,NE,45,0.0,0.0,88,0.00,,---,0.00,VWS V14.00,2013-08-18 03:55:00,
2013-08-17 23:00:00,66.8,63.5,30.03,NE,45,0.0,0.0,89,0.00,,---,0.00,VWS V14.00,2013-08-18 04:00:00,
2013-08-17 23:05:00,66.6,63.3,30.03,NE,45,0.0,0.0,89,0.00,,---,0.00,VWS V14.00,2013-08-18 04:05:00,
2013-08-17 23:10:00,66.4,63.1,30.02,NE,45,0.0,0.0,89,0.00,,---,0.00,VWS V14.00,2013-08-18 04:10:00,
2013-08-17 23:15:00,66.2,62.9,30.03,NE,45,0.0,0.0,89,0.00,,---,0.00,VWS V14.00,2013-08-18 04:15:00,
2013-08-17 23:20:00,65.9,62.6,30.02,NE,45,0.0,0.0,89,0.00,,---,0.00,VWS V14.00,2013-08-18 04:20:00,
2013-08-17 23:25:00,65.8,62.8,30.02,NE,45,0.0,0.0,90,0.00,,---,0.00,VWS V14.00,2013-08-18 04:25:00,
2013-08-17 23:30:00,65.7,62.7,30.02,NE,45,0.0,0.0,90,0.00,,---,0.00,VWS V14.00,2013-08-18 04:30:00,
2013-08-17 23:35:00,65.7,62.7,30.02,NE,45,0.0,0.0,90,0.00,,---,0.00,VWS V14.00,2013-08-18 04:35:00,
2013-08-17 23:40:00,65.7,62.7,30.03,NE,45,0.0,0.0,90,0.00,,---,0.00,VWS V14.00,2013-08-18 04:40:00,
2013-08-17 23:45:00,65.7,62.7,30.03,NE,45,0.0,0.0,90,0.00,,---,0.00,VWS V14.00,2013-08-18 04:45:00,
2013-08-17 23:50:00,65.6,62.6,30.03,NE,45,0.0,0.0,90,0.00,,---,0.00,VWS V14.00,2013-08-18 04:50:00,
2013-08-17 23:55:00,65.5,62.5,30.03,NE,45,0.0,0.0,90,0.00,,---,0.00,VWS V14.00,2013-08-18 04:55:00,